Blake Denton — WDC7496 — position and weather

sailwx.info

Track history (hours):
 
Tides and Currents Weather Stations Pressure Air Temp Water Temp Dewpoint Dewpoint Depression Visibility Wind Speed Wind Dir Waves Ship Positions

Blake Denton

Owner: Marquette Transportation, Paducah, KY. More information available from US FCC via Universal Licensing System and Coast Guard Vessel Documentation Center.

Last reported at 2015-May-28 00:15 UTC. Time now 2015-May-28 18:08 UTC.
Position N 30°44' W 091°33'.

Length 52 m; draft 3.4 m.

Type: Towing. MMSI: 367072210.

Date/timePositionNaut miles runAvg speedWind from/ knotsBaromVisibWave heightAir tempDewpointWater temp
2015-May-28 00:15N 30°44' W 091°33'10 3.7
2015-May-27 21:33N 30°44' W 091°21'4 4.3
2015-May-27 20:33N 30°40' W 091°19'4 3.7
2015-May-27 19:33N 30°36' W 091°18'4 4.1
2015-May-27 18:33N 30°33' W 091°15'4 3.6
2015-May-27 17:33N 30°30' W 091°17'4 3.7
2015-May-27 16:33N 30°31' W 091°13'4 3.7
2015-May-27 15:33N 30°28' W 091°12'3 2.7
2015-May-27 14:33N 30°25' W 091°12'2 1.6
2015-May-27 13:33N 30°24' W 091°13'0 0.3
2015-May-27 12:33N 30°24' W 091°13'0 0.1
2015-May-27 11:33N 30°24' W 091°13'0 0.2
2015-May-27 10:33N 30°24' W 091°13'2 2.0
2015-May-27 09:33N 30°25' W 091°12'5 5.1
2015-May-27 08:33N 30°31' W 091°12'4 3.8
2015-May-27 07:33N 30°30' W 091°16'4 3.9
2015-May-27 06:33N 30°34' W 091°16'4 3.7
2015-May-27 05:32N 30°37' W 091°18'8 7.4
2015-May-27 04:31N 30°44' W 091°21'10 5.0
2015-May-27 02:26N 30°47' W 091°33'  
Track history (hours):
 
Tides and Currents Weather Stations Pressure Air Temp Water Temp Dewpoint Dewpoint Depression Visibility Wind Speed Wind Dir Waves Ship Positions

Blake Denton

Owner: Marquette Transportation, Paducah, KY. More information available from US FCC via Universal Licensing System and Coast Guard Vessel Documentation Center.

Last reported at 2015-May-28 00:15 UTC. Time now 2015-May-28 18:08 UTC.
Position N 30°44' W 091°33'.

Length 52 m; draft 3.4 m.

Type: Towing. MMSI: 367072210.

Date/timePositionNaut miles runAvg speedWind from/ knotsBaromVisibWave heightAir tempDewpointWater temp
2015-May-28 00:15N 30°44' W 091°33'10 3.7
2015-May-27 21:33N 30°44' W 091°21'4 4.3
2015-May-27 20:33N 30°40' W 091°19'4 3.7
2015-May-27 19:33N 30°36' W 091°18'4 4.1
2015-May-27 18:33N 30°33' W 091°15'4 3.6
2015-May-27 17:33N 30°30' W 091°17'4 3.7
2015-May-27 16:33N 30°31' W 091°13'4 3.7
2015-May-27 15:33N 30°28' W 091°12'3 2.7
2015-May-27 14:33N 30°25' W 091°12'2 1.6
2015-May-27 13:33N 30°24' W 091°13'0 0.3
2015-May-27 12:33N 30°24' W 091°13'0 0.1
2015-May-27 11:33N 30°24' W 091°13'0 0.2
2015-May-27 10:33N 30°24' W 091°13'2 2.0
2015-May-27 09:33N 30°25' W 091°12'5 5.1
2015-May-27 08:33N 30°31' W 091°12'4 3.8
2015-May-27 07:33N 30°30' W 091°16'4 3.9
2015-May-27 06:33N 30°34' W 091°16'4 3.7
2015-May-27 05:32N 30°37' W 091°18'8 7.4
2015-May-27 04:31N 30°44' W 091°21'10 5.0
2015-May-27 02:26N 30°47' W 091°33'  

Dump ship's entire track history